createdAt,value
2017-09-28T00:00:38.089Z,17.50
2017-09-28T00:03:05.614Z,17.40
2017-09-28T00:05:33.890Z,17.40
2017-09-28T00:08:01.479Z,17.30
2017-09-28T00:10:28.982Z,17.40
2017-09-28T00:12:56.497Z,17.40
2017-09-28T00:15:24.010Z,17.40
2017-09-28T00:17:51.560Z,17.30
2017-09-28T00:20:19.075Z,17.40
2017-09-28T00:22:46.643Z,17.30
2017-09-28T00:25:14.177Z,17.30
2017-09-28T00:27:41.715Z,17.30
2017-09-28T00:30:10.040Z,17.30
2017-09-28T00:32:37.569Z,17.30
2017-09-28T00:35:05.104Z,17.40
2017-09-28T00:37:32.628Z,17.40
2017-09-28T00:40:00.188Z,17.30
2017-09-28T00:42:27.696Z,17.30
2017-09-28T00:44:56.006Z,17.30
2017-09-28T00:47:23.529Z,17.30
2017-09-28T00:49:51.821Z,17.40
2017-09-28T00:52:19.381Z,17.40
2017-09-28T00:54:46.930Z,17.30
2017-09-28T00:57:15.304Z,17.40
2017-09-28T00:59:43.604Z,17.40
2017-09-28T01:02:11.114Z,17.40
2017-09-28T01:04:38.680Z,17.40
2017-09-28T01:07:06.209Z,17.40
2017-09-28T01:09:33.798Z,17.40
2017-09-28T01:12:01.334Z,17.50
2017-09-28T01:14:28.889Z,17.50
2017-09-28T01:16:56.422Z,17.60
2017-09-28T01:19:23.967Z,17.60
2017-09-28T01:21:52.322Z,17.60
2017-09-28T01:24:19.837Z,17.60
2017-09-28T01:26:47.357Z,17.60
2017-09-28T01:29:15.642Z,17.60
2017-09-28T01:31:43.945Z,17.60
2017-09-28T01:34:11.483Z,17.60
2017-09-28T01:36:39.751Z,17.50
2017-09-28T01:39:08.050Z,17.60
2017-09-28T01:41:35.584Z,17.50
2017-09-28T01:44:03.933Z,17.70
2017-09-28T01:46:31.455Z,17.60
2017-09-28T01:48:59.025Z,17.70
2017-09-28T01:51:26.527Z,17.60
2017-09-28T01:53:54.047Z,17.60
2017-09-28T01:56:21.607Z,17.70
2017-09-28T01:58:49.206Z,17.70
2017-09-28T02:01:16.733Z,17.70
2017-09-28T02:03:44.290Z,17.70
2017-09-28T02:06:11.822Z,17.70
2017-09-28T02:08:39.363Z,17.70
2017-09-28T02:11:07.661Z,17.70
2017-09-28T02:13:35.197Z,17.70
2017-09-28T02:16:03.519Z,17.70
2017-09-28T02:18:31.477Z,17.70
2017-09-28T02:20:59.011Z,17.70
2017-09-28T02:23:27.286Z,17.80
2017-09-28T02:25:55.589Z,17.70
2017-09-28T02:28:23.108Z,17.70
2017-09-28T02:30:50.654Z,17.60
2017-09-28T02:33:18.182Z,17.60
2017-09-28T02:35:45.745Z,17.70
2017-09-28T02:38:13.273Z,17.80
2017-09-28T02:40:40.828Z,17.80
2017-09-28T02:43:09.139Z,17.80
2017-09-28T02:45:36.663Z,17.80
2017-09-28T02:48:04.943Z,17.90
2017-09-28T02:50:33.582Z,17.90
2017-09-28T02:53:01.095Z,17.90
2017-09-28T02:55:28.652Z,17.90
2017-09-28T02:57:56.188Z,18.00
2017-09-28T03:00:23.791Z,17.90
2017-09-28T03:02:51.296Z,17.80
2017-09-28T03:05:18.858Z,17.80
2017-09-28T03:07:46.357Z,17.90
2017-09-28T03:10:13.913Z,17.90
2017-09-28T03:12:41.410Z,18.00
2017-09-28T03:15:09.001Z,18.00
2017-09-28T03:17:36.543Z,18.10
2017-09-28T03:20:04.074Z,18.00
2017-09-28T03:22:31.658Z,18.00
2017-09-28T03:24:59.158Z,18.00
2017-09-28T03:27:27.449Z,18.00
2017-09-28T03:29:54.993Z,18.00
2017-09-28T03:32:23.261Z,18.10
2017-09-28T03:34:51.562Z,18.10
2017-09-28T03:37:19.071Z,18.10
2017-09-28T03:39:46.617Z,18.10
2017-09-28T03:42:14.142Z,18.10
2017-09-28T03:44:41.690Z,18.00
2017-09-28T03:47:09.978Z,18.00
2017-09-28T03:49:38.309Z,18.10
2017-09-28T03:52:06.077Z,18.10
2017-09-28T03:54:33.638Z,18.10
2017-09-28T03:57:01.202Z,18.20
2017-09-28T03:59:28.738Z,18.20
2017-09-28T04:01:57.054Z,18.20
2017-09-28T04:04:25.341Z,18.20
2017-09-28T04:06:53.674Z,18.30
2017-09-28T04:09:21.173Z,18.20
2017-09-28T04:11:49.501Z,18.30
2017-09-28T04:14:17.030Z,18.30
2017-09-28T04:16:44.563Z,18.20
2017-09-28T04:19:12.065Z,18.20
2017-09-28T04:21:39.602Z,18.20
2017-09-28T04:24:07.122Z,18.20
2017-09-28T04:26:34.649Z,18.20
2017-09-28T04:29:02.187Z,18.30
2017-09-28T04:31:29.714Z,18.30
2017-09-28T04:33:57.231Z,18.30
2017-09-28T04:36:24.806Z,18.40
2017-09-28T04:38:52.321Z,18.40
2017-09-28T04:41:19.837Z,18.30
2017-09-28T04:43:47.359Z,18.40
2017-09-28T04:46:14.913Z,18.30
2017-09-28T04:48:42.453Z,18.30
2017-09-28T04:51:10.795Z,18.30
2017-09-28T04:53:38.401Z,18.30
2017-09-28T04:56:05.929Z,18.40
2017-09-28T04:58:33.494Z,18.40
2017-09-28T05:01:01.029Z,18.50
2017-09-28T05:03:28.567Z,18.60
2017-09-28T05:05:56.117Z,18.60
2017-09-28T05:08:23.610Z,18.70
2017-09-28T05:10:51.128Z,18.70
2017-09-28T05:13:18.653Z,18.70
2017-09-28T05:15:46.194Z,18.70
2017-09-28T05:18:13.718Z,18.70
2017-09-28T05:20:41.289Z,18.70
2017-09-28T05:23:08.801Z,18.70
2017-09-28T05:25:37.074Z,18.90
2017-09-28T05:28:05.398Z,19.10
2017-09-28T05:30:32.966Z,19.10
2017-09-28T05:33:00.529Z,19.30
2017-09-28T05:35:28.078Z,19.30
2017-09-28T05:37:55.601Z,19.30
2017-09-28T05:40:23.142Z,19.30
2017-09-28T05:42:51.488Z,19.10
2017-09-28T05:45:19.017Z,19.10
2017-09-28T05:47:46.561Z,19.10
2017-09-28T05:50:14.876Z,19.10
2017-09-28T05:52:42.401Z,19.10
2017-09-28T05:55:10.674Z,19.30
2017-09-28T05:57:38.988Z,19.20
2017-09-28T06:00:06.544Z,19.20
2017-09-28T06:02:34.084Z,19.20
2017-09-28T06:05:01.614Z,19.30
2017-09-28T06:07:29.942Z,19.50
2017-09-28T06:09:57.453Z,19.40
2017-09-28T06:12:25.010Z,19.60
2017-09-28T06:14:53.285Z,19.80
2017-09-28T06:17:20.868Z,19.80
2017-09-28T06:19:48.393Z,20.00
2017-09-28T06:22:15.937Z,20.00
2017-09-28T06:24:43.493Z,20.10
2017-09-28T06:27:11.060Z,20.30
2017-09-28T06:29:38.584Z,20.30
2017-09-28T06:32:06.110Z,20.50
2017-09-28T06:34:34.406Z,20.70
2017-09-28T06:37:01.940Z,20.70
2017-09-28T06:39:30.213Z,21.00
2017-09-28T06:41:57.755Z,21.00
2017-09-28T06:44:25.338Z,21.00
2017-09-28T06:46:52.889Z,21.20
2017-09-28T06:49:26.224Z,21.20
2017-09-28T06:51:53.747Z,21.40
2017-09-28T06:54:22.037Z,21.50
2017-09-28T06:56:50.331Z,21.50
2017-09-28T06:59:17.854Z,21.40
2017-09-28T07:01:45.398Z,21.50
2017-09-28T07:04:12.923Z,21.50
2017-09-28T07:06:40.459Z,21.40
2017-09-28T07:09:08.733Z,21.40
2017-09-28T07:11:37.015Z,21.40
2017-09-28T07:14:04.558Z,21.40
2017-09-28T07:16:32.835Z,21.40
2017-09-28T07:19:01.113Z,21.70
2017-09-28T07:21:28.625Z,21.60
2017-09-28T07:23:56.191Z,21.60
2017-09-28T07:26:23.752Z,21.70
2017-09-28T07:28:51.271Z,21.70
2017-09-28T07:31:18.774Z,21.60
2017-09-28T07:33:46.316Z,21.40
2017-09-28T07:36:13.860Z,21.50
2017-09-28T07:38:41.395Z,21.50
2017-09-28T07:41:08.954Z,21.60
2017-09-28T07:43:36.567Z,21.70
2017-09-28T07:46:04.103Z,21.50
2017-09-28T07:48:31.949Z,21.70
2017-09-28T07:50:59.723Z,21.80
2017-09-28T07:53:28.064Z,21.80
2017-09-28T07:55:55.663Z,21.80
2017-09-28T07:58:24.005Z,21.90
2017-09-28T08:00:51.510Z,21.90
2017-09-28T08:03:19.030Z,21.50
2017-09-28T08:05:46.570Z,21.60
2017-09-28T08:08:14.094Z,21.70
2017-09-28T08:10:41.909Z,21.40
2017-09-28T08:13:09.657Z,21.50
2017-09-28T08:15:37.154Z,21.40
2017-09-28T08:18:05.045Z,21.60
2017-09-28T08:20:32.660Z,21.60
2017-09-28T08:23:00.252Z,21.90
2017-09-28T08:25:27.809Z,22.20
2017-09-28T08:27:56.150Z,22.60
2017-09-28T08:30:23.681Z,22.50
2017-09-28T08:32:51.234Z,22.60
2017-09-28T08:35:18.774Z,22.50
2017-09-28T08:37:46.329Z,22.60
2017-09-28T08:40:13.871Z,23.00
2017-09-28T08:42:41.435Z,23.50
2017-09-28T08:45:09.698Z,23.10
2017-09-28T08:47:37.257Z,23.10
2017-09-28T08:50:04.794Z,22.90
2017-09-28T08:52:32.314Z,22.90
2017-09-28T08:54:59.928Z,22.90
2017-09-28T08:57:27.442Z,22.90
2017-09-28T08:59:54.999Z,22.70
2017-09-28T09:02:22.525Z,22.80
2017-09-28T09:04:50.837Z,22.80
2017-09-28T09:07:18.351Z,22.80
2017-09-28T09:09:45.901Z,22.70
2017-09-28T09:12:13.417Z,23.00
2017-09-28T09:17:35.784Z,23.10
2017-09-28T09:20:03.330Z,23.10
2017-09-28T09:22:30.848Z,23.00
2017-09-28T09:24:58.395Z,22.80
2017-09-28T09:27:26.000Z,22.70
2017-09-28T09:29:54.304Z,23.30
2017-09-28T09:32:21.805Z,23.30
2017-09-28T09:34:49.328Z,23.70
2017-09-28T09:37:16.853Z,24.10
2017-09-28T09:39:44.393Z,24.90
2017-09-28T09:42:11.906Z,25.80
2017-09-28T09:44:39.446Z,27.10
2017-09-28T09:47:06.950Z,27.90
2017-09-28T09:49:34.472Z,28.70
2017-09-28T09:52:01.988Z,29.70
2017-09-28T09:54:29.590Z,30.80
2017-09-28T09:56:57.114Z,30.10
2017-09-28T09:59:25.424Z,32.20
2017-09-28T10:01:52.948Z,32.20
2017-09-28T10:04:20.512Z,32.90
2017-09-28T10:06:51.250Z,32.70
2017-09-28T10:09:30.388Z,31.80
2017-09-28T10:12:11.093Z,32.30
2017-09-28T10:14:42.609Z,32.30
2017-09-28T10:17:10.882Z,33.40
2017-09-28T10:19:39.272Z,33.70
2017-09-28T10:22:07.578Z,34.10
2017-09-28T10:24:35.102Z,34.00
2017-09-28T10:27:03.381Z,32.60
2017-09-28T10:29:32.600Z,32.00
2017-09-28T10:32:00.888Z,31.30
2017-09-28T10:34:28.427Z,31.20
2017-09-28T10:36:55.969Z,30.10
2017-09-28T10:39:23.551Z,29.80
2017-09-28T10:41:51.090Z,29.60
2017-09-28T10:44:19.394Z,30.00
2017-09-28T10:46:46.908Z,30.00
2017-09-28T10:49:14.449Z,30.10
2017-09-28T10:51:42.768Z,30.70
2017-09-28T10:54:11.068Z,30.50
2017-09-28T10:56:38.573Z,30.50
2017-09-28T10:59:06.219Z,30.50
2017-09-28T11:01:33.763Z,30.30
2017-09-28T11:04:01.357Z,30.40
2017-09-28T11:06:28.884Z,30.30
2017-09-28T11:08:56.418Z,30.00
2017-09-28T11:11:24.710Z,28.70
2017-09-28T11:13:52.236Z,28.60
2017-09-28T11:16:20.542Z,28.90
2017-09-28T11:18:49.617Z,28.80
2017-09-28T11:21:18.138Z,28.50
2017-09-28T11:23:45.972Z,28.40
2017-09-28T11:26:15.757Z,28.70
2017-09-28T11:28:45.693Z,28.70
2017-09-28T11:31:14.025Z,29.20
2017-09-28T11:33:41.516Z,29.20
2017-09-28T11:36:09.097Z,29.30
2017-09-28T11:38:37.382Z,28.60
2017-09-28T11:41:04.916Z,28.60
2017-09-28T11:43:32.505Z,28.00
2017-09-28T11:46:00.052Z,27.40
2017-09-28T11:48:28.401Z,26.80
2017-09-28T11:50:56.057Z,26.70
2017-09-28T11:53:23.860Z,26.70
2017-09-28T11:55:52.205Z,26.30
2017-09-28T11:58:19.722Z,26.30
2017-09-28T12:00:47.253Z,26.70
2017-09-28T12:03:15.579Z,26.10
2017-09-28T12:05:43.136Z,26.10
2017-09-28T12:08:10.641Z,26.30
2017-09-28T12:10:38.935Z,26.80
2017-09-28T12:13:07.238Z,27.00
2017-09-28T12:15:34.781Z,26.90
2017-09-28T12:18:02.306Z,27.20
2017-09-28T12:20:29.826Z,27.30
2017-09-28T12:22:57.383Z,27.30
2017-09-28T12:25:24.945Z,27.10
2017-09-28T12:27:52.506Z,27.10
2017-09-28T12:30:20.041Z,26.90
2017-09-28T12:32:47.569Z,26.90
2017-09-28T12:35:15.094Z,27.00
2017-09-28T12:37:42.627Z,26.90
2017-09-28T12:40:10.230Z,27.10
2017-09-28T12:42:37.745Z,27.40
2017-09-28T12:45:05.272Z,27.20
2017-09-28T12:47:33.562Z,26.80
2017-09-28T12:50:01.838Z,26.30
2017-09-28T12:52:30.122Z,26.40
2017-09-28T12:54:57.676Z,26.40
2017-09-28T12:57:26.018Z,26.30
2017-09-28T12:59:53.519Z,26.20
2017-09-28T13:02:21.834Z,25.70
2017-09-28T13:04:49.354Z,25.60
2017-09-28T13:07:16.912Z,25.50
2017-09-28T13:09:45.193Z,25.90
2017-09-28T13:12:13.492Z,26.10
2017-09-28T13:14:40.992Z,26.00
2017-09-28T13:17:08.549Z,26.20
2017-09-28T13:19:36.064Z,26.30
2017-09-28T13:22:03.616Z,26.50
2017-09-28T13:24:31.137Z,26.60
2017-09-28T13:26:58.693Z,26.60
2017-09-28T13:29:26.209Z,26.40
2017-09-28T13:31:53.728Z,26.60
2017-09-28T13:34:22.035Z,26.80
2017-09-28T13:36:49.576Z,26.80
2017-09-28T13:39:17.850Z,26.90
2017-09-28T13:41:46.190Z,26.70
2017-09-28T13:44:14.482Z,26.60
2017-09-28T13:46:42.029Z,26.50
2017-09-28T13:49:09.527Z,26.50
2017-09-28T13:51:37.805Z,27.00
2017-09-28T13:54:06.107Z,27.40
2017-09-28T13:56:33.641Z,27.30
2017-09-28T13:59:01.929Z,27.60
2017-09-28T14:01:29.453Z,27.60
2017-09-28T14:03:56.956Z,27.70
2017-09-28T14:06:24.480Z,27.80
2017-09-28T14:08:52.004Z,27.70
2017-09-28T14:11:19.546Z,27.70
2017-09-28T14:13:47.066Z,27.70
2017-09-28T14:16:15.370Z,28.00
2017-09-28T14:18:42.860Z,28.00
2017-09-28T14:21:10.402Z,27.90
2017-09-28T14:23:37.906Z,28.00
2017-09-28T14:26:05.431Z,27.90
2017-09-28T14:28:32.961Z,28.00
2017-09-28T14:31:00.498Z,28.10
2017-09-28T14:33:28.774Z,28.20
2017-09-28T14:35:57.077Z,28.00
2017-09-28T14:38:24.648Z,28.00
2017-09-28T14:40:52.160Z,27.80
2017-09-28T14:43:19.762Z,27.80
2017-09-28T14:45:47.314Z,27.70
2017-09-28T14:48:14.877Z,27.60
2017-09-28T14:50:42.392Z,27.30
2017-09-28T14:53:09.937Z,26.80
2017-09-28T14:55:37.469Z,26.80
2017-09-28T14:58:05.018Z,26.80
2017-09-28T15:00:32.521Z,26.90
2017-09-28T15:03:00.033Z,26.90
2017-09-28T15:05:27.549Z,26.90
2017-09-28T15:07:55.068Z,26.90
2017-09-28T15:10:22.598Z,26.70
2017-09-28T15:12:50.906Z,27.10
2017-09-28T15:15:18.411Z,27.10
2017-09-28T15:17:45.934Z,27.20
2017-09-28T15:20:13.478Z,27.40
2017-09-28T15:22:41.045Z,27.60
2017-09-28T15:25:08.565Z,27.60
2017-09-28T15:27:36.118Z,27.60
2017-09-28T15:30:04.437Z,27.80
2017-09-28T15:32:32.556Z,27.70
2017-09-28T15:35:00.066Z,27.80
2017-09-28T15:37:27.654Z,27.90
2017-09-28T15:39:55.182Z,27.90
2017-09-28T15:42:22.725Z,27.90
2017-09-28T15:44:50.246Z,27.80
2017-09-28T15:47:17.801Z,27.90
2017-09-28T15:49:45.297Z,27.90
2017-09-28T15:52:13.577Z,27.80
2017-09-28T15:54:41.849Z,27.80
2017-09-28T15:57:10.241Z,27.60
2017-09-28T15:59:37.764Z,27.60
2017-09-28T16:02:05.265Z,27.60
2017-09-28T16:04:32.757Z,27.50
2017-09-28T16:07:00.272Z,27.50
2017-09-28T16:09:27.782Z,27.40
2017-09-28T16:11:55.428Z,27.30
2017-09-28T16:14:22.940Z,27.30
2017-09-28T16:16:51.239Z,27.10
2017-09-28T16:19:18.797Z,27.10
2017-09-28T16:21:46.296Z,27.10
2017-09-28T16:24:13.861Z,27.10
2017-09-28T16:26:42.116Z,26.90
2017-09-28T16:29:09.645Z,26.90
2017-09-28T16:31:37.160Z,26.90
2017-09-28T16:34:04.687Z,26.80
2017-09-28T16:36:33.310Z,26.70
2017-09-28T16:39:00.821Z,26.60
2017-09-28T16:41:28.337Z,26.50
2017-09-28T16:43:55.853Z,26.50
2017-09-28T16:46:23.386Z,26.30
2017-09-28T16:48:51.689Z,26.20
2017-09-28T16:51:19.198Z,26.20
2017-09-28T16:53:46.720Z,26.10
2017-09-28T16:56:14.264Z,26.00
2017-09-28T16:58:41.835Z,25.90
2017-09-28T17:01:09.376Z,25.80
2017-09-28T17:03:36.953Z,25.70
2017-09-28T17:06:04.494Z,25.50
2017-09-28T17:08:32.602Z,25.40
2017-09-28T17:13:34.577Z,25.20
2017-09-28T17:16:02.090Z,25.10
2017-09-28T17:18:29.611Z,25.10
2017-09-28T17:20:57.133Z,25.00
2017-09-28T17:23:24.756Z,25.00
2017-09-28T17:25:53.032Z,24.80
2017-09-28T17:28:21.639Z,24.70
2017-09-28T17:30:53.203Z,24.70
2017-09-28T17:33:20.747Z,24.70
2017-09-28T17:35:49.013Z,24.60
2017-09-28T17:38:17.308Z,24.60
2017-09-28T17:40:44.830Z,24.50
2017-09-28T17:43:13.234Z,24.50
2017-09-28T17:45:43.013Z,24.50
2017-09-28T17:48:10.574Z,24.50
2017-09-28T17:50:38.179Z,24.40
2017-09-28T17:53:05.867Z,24.30
2017-09-28T17:55:33.397Z,24.30
2017-09-28T17:58:01.686Z,24.30
2017-09-28T18:00:29.206Z,24.30
2017-09-28T18:02:56.764Z,24.30
2017-09-28T18:05:24.267Z,24.20
2017-09-28T18:07:51.781Z,24.20
2017-09-28T18:10:19.350Z,24.20
2017-09-28T18:12:47.830Z,24.20
2017-09-28T18:15:16.932Z,24.10
2017-09-28T18:17:45.245Z,24.00
2017-09-28T18:20:12.828Z,24.00
2017-09-28T18:22:40.329Z,24.00
2017-09-28T18:25:07.865Z,24.10
2017-09-28T18:27:35.406Z,24.10
2017-09-28T18:30:02.952Z,24.10
2017-09-28T18:32:30.481Z,24.10
2017-09-28T18:34:58.794Z,24.00
2017-09-28T18:37:26.320Z,24.00
2017-09-28T18:39:54.629Z,24.00
2017-09-28T18:42:22.168Z,24.00
2017-09-28T18:44:49.754Z,24.00
2017-09-28T18:47:17.293Z,23.90
2017-09-28T18:49:44.884Z,23.90
2017-09-28T18:52:12.419Z,23.90
2017-09-28T18:54:39.950Z,23.80
2017-09-28T18:57:08.273Z,23.70
2017-09-28T18:59:35.816Z,23.70
2017-09-28T19:02:03.343Z,23.60
2017-09-28T19:04:31.636Z,23.50
2017-09-28T19:06:59.174Z,23.50
2017-09-28T19:09:27.493Z,23.40
2017-09-28T19:11:54.995Z,23.40
2017-09-28T19:14:22.529Z,23.40
2017-09-28T19:16:50.070Z,23.30
2017-09-28T19:19:17.606Z,23.30
2017-09-28T19:21:45.954Z,23.30
2017-09-28T19:24:13.480Z,23.20
2017-09-28T19:26:40.969Z,23.20
2017-09-28T19:29:08.473Z,23.20
2017-09-28T19:31:35.994Z,23.20
2017-09-28T19:34:03.506Z,23.20
2017-09-28T19:36:31.069Z,23.20
2017-09-28T19:38:58.605Z,23.20
2017-09-28T19:41:26.201Z,23.20
2017-09-28T19:43:53.762Z,23.10
2017-09-28T19:46:21.267Z,23.10
2017-09-28T19:48:49.568Z,23.30
2017-09-28T19:51:17.149Z,23.30
2017-09-28T19:53:44.723Z,23.30
2017-09-28T19:56:12.261Z,23.30
2017-09-28T19:58:39.806Z,23.30
2017-09-28T20:01:07.337Z,23.30
2017-09-28T20:03:35.644Z,23.40
2017-09-28T20:06:03.203Z,23.40
2017-09-28T20:08:30.779Z,23.50
2017-09-28T20:10:58.331Z,23.50
2017-09-28T20:13:25.844Z,23.60
2017-09-28T20:15:53.365Z,23.60
2017-09-28T20:18:20.857Z,23.60
2017-09-28T20:20:48.416Z,23.70
2017-09-28T20:23:15.954Z,23.60
2017-09-28T20:25:43.543Z,23.60
2017-09-28T20:28:11.060Z,23.40
2017-09-28T20:30:38.597Z,23.30
2017-09-28T20:33:06.182Z,23.30
2017-09-28T20:35:33.752Z,23.50
2017-09-28T20:38:01.296Z,23.60
2017-09-28T20:40:28.951Z,23.60
2017-09-28T20:42:56.477Z,23.70
2017-09-28T20:45:24.782Z,24.00
2017-09-28T20:47:52.281Z,24.00
2017-09-28T20:50:19.801Z,24.10
2017-09-28T20:52:47.330Z,24.00
2017-09-28T20:55:15.638Z,24.10
2017-09-28T20:57:43.169Z,24.10
2017-09-28T21:00:11.439Z,24.10
2017-09-28T21:02:39.720Z,24.20
2017-09-28T21:05:08.010Z,24.20
2017-09-28T21:07:36.261Z,24.20
2017-09-28T21:10:03.803Z,24.20
2017-09-28T21:12:31.312Z,24.10
2017-09-28T21:14:59.593Z,24.20
2017-09-28T21:17:27.136Z,24.10
2017-09-28T21:19:55.418Z,24.00
2017-09-28T21:22:23.696Z,23.90
2017-09-28T21:24:51.985Z,23.90
2017-09-28T21:27:19.558Z,23.90
2017-09-28T21:29:47.068Z,24.00
2017-09-28T21:32:14.608Z,24.10
2017-09-28T21:34:42.877Z,24.10
2017-09-28T21:37:10.495Z,24.10
2017-09-28T21:39:38.772Z,24.00
2017-09-28T21:42:07.065Z,24.00
2017-09-28T21:44:34.623Z,23.90
2017-09-28T21:47:02.145Z,23.90
2017-09-28T21:49:29.653Z,23.90
2017-09-28T21:51:57.162Z,23.90
2017-09-28T21:54:25.447Z,23.80
2017-09-28T21:56:53.779Z,23.70
2017-09-28T21:59:21.333Z,23.70
2017-09-28T22:01:48.908Z,23.70
2017-09-28T22:04:16.413Z,23.60
2017-09-28T22:06:44.759Z,23.60
2017-09-28T22:09:12.294Z,23.50
2017-09-28T22:11:39.812Z,23.50
2017-09-28T22:14:07.316Z,23.50
2017-09-28T22:16:34.905Z,23.40
2017-09-28T22:19:02.442Z,23.30
2017-09-28T22:21:29.995Z,23.30
2017-09-28T22:23:57.517Z,23.30
2017-09-28T22:26:25.076Z,23.30
2017-09-28T22:28:52.624Z,23.30
2017-09-28T22:31:20.941Z,23.20
2017-09-28T22:33:48.477Z,23.20
2017-09-28T22:36:16.811Z,23.20
2017-09-28T22:38:44.300Z,23.20
2017-09-28T22:41:12.594Z,23.20
2017-09-28T22:43:40.157Z,23.20
2017-09-28T22:46:07.662Z,23.20
2017-09-28T22:48:35.178Z,23.10
2017-09-28T22:51:02.723Z,23.20
2017-09-28T22:53:30.248Z,23.20
2017-09-28T22:55:57.831Z,23.20
2017-09-28T22:58:26.117Z,23.20
2017-09-28T23:00:54.413Z,23.20
2017-09-28T23:03:21.946Z,23.20
2017-09-28T23:05:49.490Z,23.20
2017-09-28T23:08:17.789Z,23.20
2017-09-28T23:10:46.081Z,23.30
2017-09-28T23:13:14.390Z,23.30
2017-09-28T23:15:41.940Z,23.30
2017-09-28T23:18:09.474Z,23.30
2017-09-28T23:20:37.750Z,23.30
2017-09-28T23:23:06.070Z,23.30
2017-09-28T23:25:33.596Z,23.20
2017-09-28T23:28:01.898Z,23.30
2017-09-28T23:30:29.413Z,23.30
2017-09-28T23:32:57.710Z,23.10
2017-09-28T23:35:25.213Z,23.10
2017-09-28T23:37:52.729Z,23.10
2017-09-28T23:40:20.281Z,23.10
2017-09-28T23:42:47.826Z,23.10
2017-09-28T23:45:16.106Z,23.10
2017-09-28T23:47:44.418Z,23.10
2017-09-28T23:50:11.956Z,23.00
2017-09-28T23:52:39.505Z,23.00
2017-09-28T23:55:07.780Z,22.80
2017-09-28T23:57:35.370Z,22.80
